Time;durP1;ratioP1;P1;durP2;ratioP2;P2;SDS_P1;SDS_P2;PMS_P1;PMS_P2;Temp;Humidity;BMP_temperature;BMP_pressure;BME280_temperature;BME280_humidity;BME280_pressure;Samples;Min_cycle;Max_cycle;Signal;HPM_P1;HPM_P2
2022/06/14 00:01:32;;;;;;;12.70;11.20;;;;;;;21.64;68.12;101028.91;4952188;29;20027;-87
2022/06/14 00:03:58;;;;;;;12.45;10.93;;;;;;;21.59;68.01;101026.66;4936293;29;20031;-86
2022/06/14 00:06:25;;;;;;;16.40;10.98;;;;;;;21.62;68.10;101023.75;4936141;29;20125;-87
2022/06/14 00:08:51;;;;;;;13.80;11.65;;;;;;;21.42;68.80;101017.63;4935715;29;20090;-87
2022/06/14 00:11:32;;;;;;;15.02;11.00;;;;;;;21.44;68.32;101020.97;4951716;29;20031;-86
2022/06/14 00:13:58;;;;;;;12.65;11.23;;;;;;;21.40;68.13;101008.22;4951815;29;20031;-86
2022/06/14 00:16:24;;;;;;;14.95;11.07;;;;;;;21.52;68.18;101022.06;4936007;29;20034;-87
2022/06/14 00:18:50;;;;;;;12.02;10.73;;;;;;;21.31;68.30;101015.13;4951548;29;20035;-86
2022/06/14 00:21:16;;;;;;;14.48;10.82;;;;;;;21.37;68.48;101024.28;4951933;29;20027;-86
2022/06/14 00:23:41;;;;;;;18.42;11.18;;;;;;;21.41;68.20;101031.75;4935630;29;20139;-86
2022/06/14 00:26:08;;;;;;;15.23;11.18;;;;;;;21.38;68.42;101026.78;4951811;29;20412;-87
2022/06/14 00:28:34;;;;;;;17.42;11.02;;;;;;;21.39;68.29;101023.16;4951936;29;20053;-87
2022/06/14 00:31:12;;;;;;;12.73;10.85;;;;;;;21.35;68.21;101016.53;4967888;28;20111;-86
2022/06/14 00:33:37;;;;;;;13.10;10.77;;;;;;;21.41;68.21;101015.97;4935694;29;20032;-87
2022/06/14 00:36:08;;;;;;;13.55;11.20;;;;;;;21.42;68.29;101016.78;4951496;29;20024;-86
2022/06/14 00:38:34;;;;;;;14.55;10.65;;;;;;;21.46;68.34;101020.84;4951134;29;20512;-88
2022/06/14 00:41:00;;;;;;;14.27;11.20;;;;;;;21.43;68.15;101013.19;4951619;29;20027;-86
2022/06/14 00:43:27;;;;;;;15.93;10.73;;;;;;;21.35;68.50;101003.38;4935719;29;20035;-87
2022/06/14 00:45:52;;;;;;;14.50;10.57;;;;;;;21.41;68.15;101023.84;4935688;29;20035;-87
2022/06/14 00:48:28;;;;;;;15.77;10.55;;;;;;;21.40;68.17;101010.84;4952769;29;20537;-86
2022/06/14 00:50:59;;;;;;;13.70;10.65;;;;;;;21.26;68.24;101017.34;4951306;29;20031;-87
2022/06/14 00:53:48;;;;;;;13.17;10.37;;;;;;;21.29;68.41;101017.06;4951221;29;20031;-87
2022/06/14 00:56:31;;;;;;;15.23;10.68;;;;;;;21.22;68.57;101010.63;4956522;28;20039;-87
2022/06/14 00:59:03;;;;;;;16.60;11.13;;;;;;;21.25;68.72;101026.16;4935489;29;20027;-88
2022/06/14 01:01:31;;;;;;;13.75;10.50;;;;;;;21.29;68.59;101032.84;4951547;29;20129;-87
2022/06/14 01:03:58;;;;;;;12.45;10.55;;;;;;;21.25;68.77;101030.59;4951738;29;20040;-88
2022/06/14 01:06:53;;;;;;;13.38;11.20;;;;;;;21.17;69.12;101024.19;4935402;29;20126;-87
2022/06/14 01:09:35;;;;;;;12.75;10.75;;;;;;;21.13;69.54;101038.56;4935107;29;20058;-86
2022/06/14 01:12:08;;;;;;;14.45;10.77;;;;;;;21.05;69.22;101027.06;4966046;28;20028;-86
2022/06/14 01:15:15;;;;;;;12.63;10.75;;;;;;;21.15;68.92;101036.66;4951397;29;20106;-87
2022/06/14 01:17:44;;;;;;;16.58;11.38;;;;;;;21.03;68.93;101002.66;4948343;29;20043;-87
2022/06/14 01:20:11;;;;;;;13.90;11.43;;;;;;;21.13;68.69;101016.69;4936842;29;20051;-87
2022/06/14 01:22:37;;;;;;;13.13;11.00;;;;;;;20.98;68.47;101002.25;4938813;29;20035;-87
2022/06/14 01:25:02;;;;;;;18.75;13.27;;;;;;;21.13;68.12;101021.94;4955136;29;20035;-86
2022/06/14 01:27:30;;;;;;;16.90;12.35;;;;;;;21.16;67.84;101025.16;4954952;29;20409;-88
2022/06/14 01:30:26;;;;;;;16.85;11.48;;;;;;;21.09;67.75;101020.56;4938748;29;20042;-87
2022/06/14 01:33:07;;;;;;;12.05;10.43;;;;;;;21.03;67.45;101015.81;4954008;29;20039;-88
2022/06/14 01:35:38;;;;;;;12.70;10.85;;;;;;;21.09;67.36;101016.13;4971012;28;20034;-87
2022/06/14 01:38:11;;;;;;;13.65;11.05;;;;;;;21.03;67.35;101016.66;4954887;29;20061;-86
2022/06/14 01:40:55;;;;;;;12.60;10.68;;;;;;;20.87;66.95;100992.66;4938693;29;20035;-87
2022/06/14 01:43:36;;;;;;;14.05;10.55;;;;;;;20.99;67.33;101025.78;4955692;29;20059;-87
2022/06/14 01:46:20;;;;;;;14.75;10.82;;;;;;;20.85;67.11;101013.00;4955948;28;20481;-86
2022/06/14 01:48:49;;;;;;;14.60;9.88;;;;;;;20.80;67.34;101015.19;4955834;29;20039;-87
2022/06/14 01:54:18;;;;;;;15.65;10.50;;;;;;;20.77;67.69;101031.22;4968492;28;20038;-86
2022/06/14 01:56:48;;;;;;;14.10;10.75;;;;;;;20.84;67.46;101038.47;4970574;28;20031;-86
2022/06/14 01:59:22;;;;;;;13.00;10.73;;;;;;;20.88;67.51;101031.13;4954389;29;20035;-87
2022/06/14 02:01:52;;;;;;;15.65;10.80;;;;;;;20.89;67.59;101036.25;4954488;29;20031;-87
2022/06/14 02:04:53;;;;;;;17.20;11.38;;;;;;;20.89;67.04;101045.94;4954316;29;20062;-86
2022/06/14 02:07:34;;;;;;;13.02;10.82;;;;;;;20.87;66.95;101032.94;4937206;29;20551;-87
2022/06/14 02:10:04;;;;;;;13.60;11.75;;;;;;;20.65;67.27;101019.97;4954204;29;20408;-86
2022/06/14 02:12:40;;;;;;;15.88;11.98;;;;;;;20.60;67.08;101016.88;4954223;29;20027;-87
2022/06/14 02:15:50;;;;;;;13.30;11.27;;;;;;;20.76;67.31;101045.34;4969994;28;20035;-87
2022/06/14 02:18:20;;;;;;;12.50;10.88;;;;;;;20.76;66.67;101046.19;4933920;28;20031;-86
2022/06/14 02:21:05;;;;;;;12.20;10.35;;;;;;;20.69;66.66;101042.41;4953596;29;20071;-86
2022/06/14 02:23:35;;;;;;;11.93;10.32;;;;;;;20.71;66.34;101047.50;4954108;29;20074;-87
2022/06/14 02:26:06;;;;;;;14.48;9.80;;;;;;;20.78;65.63;101060.03;4953998;29;20058;-87
2022/06/14 02:28:33;;;;;;;13.85;10.27;;;;;;;20.76;66.06;101067.22;4937945;29;20067;-86
2022/06/14 02:31:08;;;;;;;15.05;10.45;;;;;;;20.79;66.12;101060.84;4968827;28;20027;-87
2022/06/14 02:33:40;;;;;;;13.07;10.35;;;;;;;20.83;65.45;101052.56;4937887;29;20060;-87
2022/06/14 02:36:09;;;;;;;13.60;10.63;;;;;;;20.87;65.75;101053.97;4969345;28;20031;-87
2022/06/14 02:38:44;;;;;;;16.92;11.65;;;;;;;20.77;66.49;101041.75;4953805;29;20067;-87
2022/06/14 02:41:32;;;;;;;14.45;11.65;;;;;;;20.85;66.40;101057.72;4953673;29;20086;-87
2022/06/14 02:44:23;;;;;;;12.70;10.43;;;;;;;20.91;65.59;101062.44;4953738;29;20027;-87
2022/06/14 02:47:17;;;;;;;14.23;10.57;;;;;;;20.86;65.94;101068.09;4969453;28;20106;-87
2022/06/14 02:49:42;;;;;;;14.55;10.70;;;;;;;20.85;65.52;101081.38;4967598;28;20034;-87
2022/06/14 02:52:25;;;;;;;13.25;10.07;;;;;;;20.87;65.68;101082.06;4954957;29;20071;-87
2022/06/14 02:55:04;;;;;;;13.40;9.75;;;;;;;20.95;66.30;101079.63;4969789;28;20020;-85
2022/06/14 02:57:38;;;;;;;12.63;9.82;;;;;;;20.99;65.64;101077.56;4969157;28;20035;-85
2022/06/14 03:00:19;;;;;;;13.45;9.77;;;;;;;20.84;65.26;101075.28;4969414;28;20030;-86
2022/06/14 03:03:01;;;;;;;12.13;9.60;;;;;;;20.77;64.81;101083.81;4968090;28;20125;-85
2022/06/14 03:05:29;;;;;;;;;;;;;;;20.64;64.97;101084.00;4969213;28;20031;-85
2022/06/14 03:07:59;;;;;;;18.08;9.88;;;;;;;20.54;65.57;101078.66;4969187;28;19914;-86
2022/06/14 03:10:27;;;;;;;14.48;10.23;;;;;;;20.50;64.77;101071.19;4953283;29;20042;-87
2022/06/14 03:13:11;;;;;;;46.00;12.40;;;;;;;20.41;65.35;101061.41;4937153;29;20054;-86
2022/06/14 03:16:19;;;;;;;24.75;10.05;;;;;;;20.51;65.39;101080.75;4953190;29;20031;-85
2022/06/14 03:18:49;;;;;;;20.60;9.82;;;;;;;20.51;65.39;101083.38;4952365;29;20043;-85
2022/06/14 03:21:18;;;;;;;14.88;9.93;;;;;;;20.48;66.01;101083.63;4952902;28;20030;-86
2022/06/14 03:24:10;;;;;;;12.10;9.25;;;;;;;20.42;65.43;101078.84;4952998;28;20039;-85
2022/06/14 03:27:01;;;;;;;12.93;10.15;;;;;;;20.44;65.72;101087.44;4967389;28;20035;-86
2022/06/14 03:29:52;;;;;;;12.77;10.35;;;;;;;20.18;65.53;101056.28;4969069;28;20484;-86
2022/06/14 03:32:40;;;;;;;11.27;9.63;;;;;;;20.39;65.08;101095.69;4952281;29;20033;-85
2022/06/14 03:35:12;;;;;;;14.35;9.82;;;;;;;20.40;64.91;101091.28;4946051;28;20134;-85
2022/06/14 03:37:38;;;;;;;13.75;10.25;;;;;;;20.39;64.82;101090.44;4952765;29;20049;-86
2022/06/14 03:40:06;;;;;;;12.02;9.82;;;;;;;20.30;64.96;101081.53;4968452;28;20142;-86
2022/06/14 03:42:33;;;;;;;10.90;9.68;;;;;;;20.44;64.83;101103.22;4936156;29;20039;-86
2022/06/14 03:44:58;;;;;;;12.35;9.50;;;;;;;20.42;64.95;101115.63;4952781;29;20500;-85
2022/06/14 03:47:25;;;;;;;12.63;9.98;;;;;;;20.40;64.43;101105.25;4968280;28;20042;-85
2022/06/14 03:50:16;;;;;;;13.60;10.50;;;;;;;20.41;64.66;101104.28;4936226;29;20027;-85
2022/06/14 03:52:54;;;;;;;11.77;9.75;;;;;;;20.49;64.63;101122.91;4946664;29;20035;-86
2022/06/14 03:55:38;;;;;;;13.65;9.60;;;;;;;20.52;64.49;101120.03;4967769;28;20098;-85
2022/06/14 03:58:22;;;;;;;11.98;9.20;;;;;;;20.54;64.51;101125.16;4953534;29;20493;-85
2022/06/14 04:00:50;;;;;;;12.60;9.80;;;;;;;20.61;64.72;101132.41;4952126;28;20034;-86
2022/06/14 04:03:38;;;;;;;12.57;9.60;;;;;;;20.68;64.05;101131.91;4951902;28;20408;-85
2022/06/14 04:06:10;;;;;;;12.00;9.85;;;;;;;20.71;63.75;101131.66;4968054;28;20430;-86
2022/06/14 04:08:51;;;;;;;11.32;9.45;;;;;;;20.75;64.23;101131.28;4952227;28;20045;-87
2022/06/14 04:11:56;;;;;;;13.20;9.45;;;;;;;20.79;63.94;101129.22;4950875;28;20035;-88
2022/06/14 04:14:59;;;;;;;17.08;12.18;;;;;;;20.82;63.86;101132.41;4929665;29;20043;-91
2022/06/14 04:17:32;;;;;;;15.10;10.45;;;;;;;20.67;63.60;101102.16;4939631;28;20202;-90
2022/06/14 04:20:01;;;;;;;11.40;9.75;;;;;;;20.90;63.72;101137.88;4947570;28;20095;-87
2022/06/14 04:22:40;;;;;;;16.88;11.20;;;;;;;20.95;63.70;101139.28;4935348;28;20074;-85
2022/06/14 04:25:41;;;;;;;11.32;10.10;;;;;;;20.91;63.12;101126.38;4933686;29;20036;-85
2022/06/14 04:28:16;;;;;;;14.52;9.48;;;;;;;21.05;62.50;101134.91;4934207;29;20063;-88
2022/06/14 04:31:05;;;;;;;13.05;9.63;;;;;;;21.10;62.53;101132.72;4952560;29;20031;-88
2022/06/14 04:33:42;;;;;;;12.50;8.82;;;;;;;21.21;61.86;101137.88;4935178;29;20047;-91
2022/06/14 04:36:09;;;;;;;10.82;8.35;;;;;;;21.33;61.58;101142.13;4951618;28;20072;-89
2022/06/14 04:38:37;;;;;;;13.80;9.27;;;;;;;21.34;61.45;101128.03;4934635;29;20035;-91
2022/06/14 04:41:22;;;;;;;14.73;9.20;;;;;;;21.43;61.18;101150.06;4947259;29;20039;-87
2022/06/14 04:44:18;;;;;;;9.93;8.90;;;;;;;21.40;61.26;101150.34;4967118;28;20070;-89
2022/06/14 04:46:52;;;;;;;13.40;9.20;;;;;;;21.36;61.79;101141.88;4936157;28;20052;-88
2022/06/14 04:49:25;;;;;;;12.45;8.80;;;;;;;21.47;61.07;101152.31;4938307;29;20441;-91
2022/06/14 04:51:53;;;;;;;10.38;9.02;;;;;;;21.47;60.94;101144.41;4966761;28;20082;-88
2022/06/14 04:54:22;;;;;;;11.73;8.88;;;;;;;21.48;60.97;101153.97;4934156;29;20345;-88
2022/06/14 04:56:49;;;;;;;14.02;9.05;;;;;;;21.63;60.83;101161.50;4934474;29;20082;-85
2022/06/14 04:59:33;;;;;;;11.57;8.70;;;;;;;21.76;60.50;101165.56;4967546;28;20098;-92
2022/06/14 05:02:23;;;;;;;13.57;9.25;;;;;;;21.94;60.39;101165.75;4955070;29;20031;-83
2022/06/14 05:04:55;;;;;;;11.65;8.65;;;;;;;22.02;59.73;101173.84;4948918;29;20044;-90
2022/06/14 05:07:43;;;;;;;9.65;8.30;;;;;;;22.03;59.76;101162.31;4944031;29;20031;-90
2022/06/14 05:10:15;;;;;;;12.50;8.38;;;;;;;22.08;59.52;101161.09;4949324;29;20117;-89
2022/06/14 05:12:48;;;;;;;10.32;8.50;;;;;;;22.07;59.46;101169.97;4935231;29;20037;-87
2022/06/14 05:15:19;;;;;;;;;;;;;;;22.13;59.33;101175.53;4955588;28;20040;-86
2022/06/14 05:17:49;;;;;;;13.98;8.68;;;;;;;22.15;59.87;101167.50;4947090;28;20330;-87
2022/06/14 05:20:31;;;;;;;11.73;8.85;;;;;;;22.20;59.44;101160.81;4962695;28;20445;-88
2022/06/14 05:23:04;;;;;;;11.63;9.18;;;;;;;22.44;59.15;101178.91;4929555;29;20502;-90
2022/06/14 05:26:10;;;;;;;36.13;12.15;;;;;;;22.57;59.21;101183.88;4966768;28;20051;-86
2022/06/14 05:29:07;;;;;;;15.05;10.70;;;;;;;22.73;58.83;101189.44;4941765;29;20043;-88
2022/06/14 05:32:09;;;;;;;12.40;9.00;;;;;;;22.85;58.55;101188.34;4948961;28;20059;-86
2022/06/14 05:35:04;;;;;;;14.30;10.75;;;;;;;23.04;58.50;101186.66;4966243;28;20555;-84
2022/06/14 05:37:41;;;;;;;12.27;9.25;;;;;;;23.17;57.18;101187.16;4946972;28;20045;-88
2022/06/14 05:40:34;;;;;;;32.53;11.23;;;;;;;23.37;56.42;101187.94;4951274;29;20039;-87
2022/06/14 05:43:12;;;;;;;12.90;9.48;;;;;;;23.48;55.73;101195.66;4949984;29;20031;-89
2022/06/14 05:46:03;;;;;;;17.42;8.98;;;;;;;23.54;55.71;101189.81;4923423;28;20055;-86
2022/06/14 05:48:34;;;;;;;12.05;8.77;;;;;;;23.66;56.31;101188.69;4948324;28;20074;-89
2022/06/14 05:51:00;;;;;;;12.02;7.47;;;;;;;23.81;54.54;101199.59;4959993;28;20120;-89
2022/06/14 05:53:36;;;;;;;19.77;8.68;;;;;;;23.84;55.16;101201.13;4962755;28;20115;-86
2022/06/14 05:56:26;;;;;;;10.45;7.40;;;;;;;23.88;53.86;101207.75;4945154;29;20092;-92
2022/06/14 05:59:23;;;;;;;14.57;8.50;;;;;;;23.84;54.37;101211.69;4932578;29;20059;-88
2022/06/14 06:01:55;;;;;;;11.50;7.65;;;;;;;23.80;55.25;101199.75;4946681;28;20035;-88
2022/06/14 06:04:26;;;;;;;11.73;7.65;;;;;;;23.90;54.25;101205.81;4950382;28;20123;-88
2022/06/14 06:07:04;;;;;;;14.63;7.78;;;;;;;24.01;53.17;101209.09;4914495;29;20502;-90
2022/06/14 06:09:51;;;;;;;10.35;7.60;;;;;;;24.14;53.05;101219.31;4965885;28;20039;-87
2022/06/14 06:12:23;;;;;;;16.17;8.57;;;;;;;24.23;53.14;101213.13;4949773;29;20118;-89
2022/06/14 06:14:50;;;;;;;11.23;8.20;;;;;;;24.40;52.44;101234.47;4964113;28;20039;-89
2022/06/14 06:17:18;;;;;;;16.40;8.65;;;;;;;24.44;51.90;101235.84;4973154;28;20039;-90
2022/06/14 06:19:56;;;;;;;10.20;6.95;;;;;;;24.47;52.50;101228.41;4938494;29;20052;-92
2022/06/14 06:22:37;;;;;;;8.10;6.55;;;;;;;24.49;51.06;101234.41;4968857;28;20089;-92
2022/06/14 06:25:19;;;;;;;12.18;6.13;;;;;;;24.47;50.88;101239.00;4953922;29;20039;-91
2022/06/14 06:27:52;;;;;;;8.90;6.30;;;;;;;24.45;51.23;101232.22;4968980;28;20031;-90
2022/06/14 06:30:22;;;;;;;8.98;6.18;;;;;;;24.49;51.18;101228.28;4953538;29;20568;-85
2022/06/14 06:32:47;;;;;;;7.75;6.70;;;;;;;24.66;50.72;101243.31;4946802;29;20028;-86
2022/06/14 06:35:13;;;;;;;9.43;5.85;;;;;;;24.74;49.32;101242.56;4951899;29;20046;-90
2022/06/14 06:37:39;;;;;;;23.77;8.18;;;;;;;24.74;49.03;101243.41;4959373;28;20031;-89
2022/06/14 06:40:20;;;;;;;9.07;5.40;;;;;;;24.81;49.06;101251.56;4954423;29;20404;-92
2022/06/14 06:43:06;;;;;;;8.38;6.07;;;;;;;24.73;47.05;101230.31;4938616;29;20031;-87
2022/06/14 06:45:35;;;;;;;13.88;6.15;;;;;;;25.00;46.52;101258.50;4917034;28;20084;-86
2022/06/14 06:48:11;;;;;;;13.63;6.47;;;;;;;24.95;46.63;101244.88;4948468;29;20110;-91
2022/06/14 06:50:39;;;;;;;14.75;6.57;;;;;;;25.04;47.00;101254.59;4968977;28;20034;-91
2022/06/14 06:53:06;;;;;;;8.30;4.95;;;;;;;25.03;45.99;101248.47;4954173;29;20497;-86
2022/06/14 06:56:03;;;;;;;12.57;5.22;;;;;;;25.16;46.20;101263.94;4964487;28;20475;-91
2022/06/14 06:58:50;;;;;;;12.18;5.72;;;;;;;25.16;44.36;101263.94;4953256;29;20119;-93
2022/06/14 07:01:18;;;;;;;13.43;5.20;;;;;;;25.07;44.60;101252.47;4953572;29;20038;-91
2022/06/14 07:03:45;;;;;;;8.00;4.35;;;;;;;24.96;43.28;101267.72;4952898;29;20031;-85
2022/06/14 07:06:21;;;;;;;8.07;4.90;;;;;;;24.91;44.96;101265.53;4933494;29;20032;-90
2022/06/14 07:09:01;;;;;;;6.07;4.22;;;;;;;24.95;46.65;101271.34;4933508;29;20036;-86
2022/06/14 07:11:34;;;;;;;8.63;4.50;;;;;;;24.86;45.60;101270.44;4951286;29;20039;-92
2022/06/14 07:14:04;;;;;;;13.75;10.30;;;;;;;24.91;44.31;101270.00;4936643;29;20031;-91
2022/06/14 07:16:33;;;;;;;10.15;4.70;;;;;;;25.03;45.42;101274.09;4937047;28;20528;-91
2022/06/14 07:19:17;;;;;;;7.50;5.10;;;;;;;25.20;45.50;101283.84;4957938;28;20537;-87
2022/06/14 07:21:52;;;;;;;5.68;5.18;;;;;;;25.28;44.38;101277.78;4942705;28;20032;-87
2022/06/14 07:24:25;;;;;;;5.85;4.80;;;;;;;25.12;44.72;101244.88;4952184;28;20072;-91
2022/06/14 07:26:54;;;;;;;6.57;5.00;;;;;;;25.20;44.20;101286.50;4934889;29;20070;-86
2022/06/14 07:29:44;;;;;;;7.15;4.47;;;;;;;25.08;43.71;101274.50;4935777;29;20430;-86
2022/06/14 07:32:13;;;;;;;5.68;4.40;;;;;;;25.15;44.51;101289.59;4934966;29;20122;-86
2022/06/14 07:34:39;;;;;;;9.77;6.00;;;;;;;24.98;45.14;101284.31;4949837;29;20074;-85
2022/06/14 07:37:04;;;;;;;8.07;4.82;;;;;;;24.95;45.04;101295.16;4940760;29;20122;-87
2022/06/14 07:40:02;;;;;;;10.57;5.38;;;;;;;24.84;45.24;101288.28;4947083;29;20031;-86
2022/06/14 07:42:39;;;;;;;6.78;4.60;;;;;;;24.82;45.48;101277.88;4947654;29;20050;-89
2022/06/14 07:45:20;;;;;;;6.40;5.28;;;;;;;24.89;43.73;101284.22;4928429;28;20047;-86
2022/06/14 07:47:50;;;;;;;5.95;4.60;;;;;;;25.15;44.42;101299.34;4935465;29;20028;-90
2022/06/14 07:50:33;;;;;;;15.15;5.90;;;;;;;25.31;43.77;101303.94;4951330;29;20035;-85
2022/06/14 07:53:12;;;;;;;8.60;5.90;;;;;;;25.45;43.33;101304.19;4947059;29;20031;-87
2022/06/14 07:55:46;;;;;;;8.20;5.55;;;;;;;25.62;42.96;101304.31;4948838;28;20031;-88
2022/06/14 07:58:22;;;;;;;10.80;5.80;;;;;;;25.71;43.53;101301.59;4941133;28;20087;-87
2022/06/14 08:01:10;;;;;;;8.98;4.97;;;;;;;25.75;42.03;101302.09;4947425;29;20062;-88
2022/06/14 08:03:46;;;;;;;11.57;6.38;;;;;;;25.83;41.62;101298.66;4941381;29;20034;-86
2022/06/14 08:06:17;;;;;;;13.52;8.45;;;;;;;25.94;39.88;101296.56;4966623;28;20453;-90
2022/06/14 08:08:44;;;;;;;6.55;4.65;;;;;;;26.05;38.91;101313.16;4966906;28;20034;-84
2022/06/14 08:11:24;;;;;;;10.30;4.68;;;;;;;26.05;36.90;101307.88;4926312;29;20061;-88
2022/06/14 08:13:55;;;;;;;7.68;4.72;;;;;;;26.09;36.50;101303.94;4965929;28;20922;-91
2022/06/14 08:16:21;;;;;;;21.08;6.53;;;;;;;26.09;36.43;101303.94;4965734;28;20035;-87
2022/06/14 08:18:56;;;;;;;8.68;5.53;;;;;;;26.18;40.17;101305.63;4949180;29;20480;-86
2022/06/14 08:21:32;;;;;;;26.27;8.77;;;;;;;26.26;40.15;101324.22;4945918;29;20485;-87
2022/06/14 08:24:16;;;;;;;14.77;7.35;;;;;;;26.36;40.48;101327.56;4963436;28;20058;-89
2022/06/14 08:26:51;;;;;;;10.15;7.07;;;;;;;26.30;40.47;101320.25;4964168;28;20057;-84
2022/06/14 08:29:44;;;;;;;13.32;6.90;;;;;;;26.28;39.70;101325.72;4950368;29;20062;-85
2022/06/14 08:32:12;;;;;;;15.63;6.93;;;;;;;26.29;38.07;101323.88;4962253;28;20035;-88
2022/06/14 08:34:40;;;;;;;11.57;6.63;;;;;;;26.39;38.33;101331.75;4965750;28;20122;-90
2022/06/14 08:37:11;;;;;;;10.65;6.70;;;;;;;26.33;39.28;101338.47;4965003;28;20197;-82
2022/06/14 08:39:48;;;;;;;13.38;8.98;;;;;;;26.37;38.70;101337.22;4966781;28;20153;-85
2022/06/14 08:42:18;;;;;;;7.85;5.90;;;;;;;26.64;36.81;101340.59;4934812;29;20046;-87
2022/06/14 08:45:01;;;;;;;8.45;5.22;;;;;;;26.56;34.43;101339.59;4966502;28;20436;-86
2022/06/14 08:47:39;;;;;;;11.25;5.20;;;;;;;26.65;34.83;101337.81;4959229;28;20047;-84
2022/06/14 08:50:34;;;;;;;7.55;5.60;;;;;;;26.72;37.03;101332.66;4951880;28;20486;-87
2022/06/14 08:53:28;;;;;;;9.43;7.15;;;;;;;26.63;38.23;101328.31;4950233;29;20126;-83
2022/06/14 08:56:19;;;;;;;9.52;7.00;;;;;;;26.82;37.07;101338.63;4939676;29;20102;-82
2022/06/14 08:59:14;;;;;;;11.45;7.55;;;;;;;26.57;36.82;101335.94;4960217;28;20031;-85
2022/06/14 09:02:17;;;;;;;11.52;7.50;;;;;;;26.44;37.17;101346.16;4911641;28;20040;-83
2022/06/14 09:05:16;;;;;;;15.63;8.93;;;;;;;26.46;36.75;101352.19;4950712;28;20090;-90
2022/06/14 09:08:13;;;;;;;9.98;7.95;;;;;;;26.43;37.67;101349.00;4947921;29;20094;-85
2022/06/14 09:10:53;;;;;;;10.80;8.05;;;;;;;26.52;37.73;101356.81;4938140;29;20082;-91
2022/06/14 09:13:37;;;;;;;9.75;7.65;;;;;;;26.53;37.84;101355.81;4950032;29;20027;-88
2022/06/14 09:16:27;;;;;;;13.93;8.90;;;;;;;26.75;37.62;101350.94;4951613;28;20111;-88
2022/06/14 09:19:00;;;;;;;9.90;8.55;;;;;;;26.71;37.25;101331.00;4950305;29;20027;-87
2022/06/14 09:21:28;;;;;;;10.77;8.07;;;;;;;26.92;37.62;101344.63;4931585;29;20054;-86
2022/06/14 09:24:23;;;;;;;12.25;7.93;;;;;;;26.63;37.56;101352.19;4948783;29;20035;-85
2022/06/14 09:27:13;;;;;;;11.82;7.63;;;;;;;26.63;38.16;101352.19;4938993;29;20073;-89
2022/06/14 09:29:48;;;;;;;7.93;7.07;;;;;;;26.59;37.94;101330.47;4947351;29;20101;-88
2022/06/14 09:33:09;;;;;;;12.27;7.40;;;;;;;26.42;37.68;101350.81;4965813;28;20027;-90
2022/06/14 09:35:51;;;;;;;21.48;16.90;;;;;;;26.37;38.83;101347.81;4948953;29;20035;-86
2022/06/14 09:38:34;;;;;;;27.10;17.20;;;;;;;26.41;38.26;101346.50;4934441;29;20122;-85
2022/06/14 09:41:41;;;;;;;7.95;6.15;;;;;;;26.36;38.19;101348.78;4935862;29;20174;-92
2022/06/14 09:44:34;;;;;;;10.57;7.13;;;;;;;26.44;37.96;101335.56;4942081;29;20059;-87
2022/06/14 09:47:16;;;;;;;10.20;7.18;;;;;;;26.53;38.50;101350.50;4929540;28;20055;-87
2022/06/14 09:50:00;;;;;;;10.20;6.60;;;;;;;26.62;37.81;101347.88;4968971;28;20035;-87
2022/06/14 09:52:47;;;;;;;7.97;6.15;;;;;;;26.86;37.93;101345.31;4952253;29;20071;-87
2022/06/14 09:55:24;;;;;;;11.40;6.15;;;;;;;26.97;36.74;101350.28;4952494;29;20027;-90
2022/06/14 09:58:15;;;;;;;10.82;6.97;;;;;;;26.99;36.72;101344.81;4952135;29;20046;-85
2022/06/14 10:00:49;;;;;;;7.97;5.93;;;;;;;27.15;36.97;101329.75;4954182;28;20456;-88
2022/06/14 10:03:33;;;;;;;12.70;5.78;;;;;;;27.24;37.08;101335.06;4954035;28;20023;-92
2022/06/14 10:06:11;;;;;;;8.82;5.88;;;;;;;27.32;36.48;101316.44;4952365;29;20031;-90
2022/06/14 10:08:46;;;;;;;8.50;5.72;;;;;;;27.34;36.57;101341.03;4951966;29;20450;-92
2022/06/14 10:11:57;;;;;;;7.57;5.72;;;;;;;27.63;36.34;101335.16;4965751;28;20034;-93
2022/06/14 10:14:30;;;;;;;7.47;5.03;;;;;;;27.72;35.93;101332.34;4946849;29;20046;-89
2022/06/14 10:17:14;;;;;;;9.70;5.65;;;;;;;27.39;36.43;101336.03;4966454;28;20093;-90
2022/06/14 10:19:58;;;;;;;6.30;4.70;;;;;;;27.04;37.61;101319.47;4954127;29;20054;-92
2022/06/14 10:22:36;;;;;;;9.63;6.25;;;;;;;26.86;37.15;101329.38;4955313;29;20042;-90
2022/06/14 10:25:10;;;;;;;14.93;5.90;;;;;;;26.82;36.80;101328.84;4969198;28;20081;-89
2022/06/14 10:30:46;;;;;;;8.98;3.85;;;;;;;26.50;33.92;101342.06;4953020;29;20091;-90
2022/06/14 10:33:34;;;;;;;4.78;3.63;;;;;;;26.44;35.03;101342.69;4969632;28;20028;-91
2022/06/14 10:36:09;;;;;;;7.82;4.40;;;;;;;26.30;34.38;101331.69;4968782;28;20024;-90
2022/06/14 10:39:12;;;;;;;25.00;22.27;;;;;;;26.65;35.43;101336.97;4956924;28;20035;-90
2022/06/14 10:42:08;;;;;;;7.60;3.40;;;;;;;26.81;34.93;101340.47;4949278;29;20036;-92
2022/06/14 10:45:00;;;;;;;7.25;3.63;;;;;;;26.72;35.44;101296.31;4956518;28;20416;-87
2022/06/14 10:47:38;;;;;;;8.27;4.53;;;;;;;26.91;35.85;101329.69;4935342;28;20501;-85
2022/06/14 10:50:37;;;;;;;4.75;3.40;;;;;;;27.06;34.61;101320.13;4968140;28;20031;-87
2022/06/14 10:53:31;;;;;;;9.93;5.47;;;;;;;27.21;35.44;101324.75;4950602;28;20027;-92
2022/06/14 10:56:33;;;;;;;9.73;4.18;;;;;;;27.31;35.12;101317.44;4951174;29;20522;-86
2022/06/14 10:59:12;;;;;;;7.53;3.90;;;;;;;27.37;35.38;101316.78;4952289;29;20089;-89
2022/06/14 11:01:44;;;;;;;7.68;4.05;;;;;;;27.41;36.64;101324.25;4952895;28;20118;-83
2022/06/14 11:04:25;;;;;;;9.13;4.25;;;;;;;27.44;36.43;101323.09;4953152;29;20489;-86
2022/06/14 11:07:17;;;;;;;6.70;4.65;;;;;;;27.47;36.96;101305.97;4968055;28;20055;-86
2022/06/14 11:09:52;;;;;;;9.20;4.75;;;;;;;27.63;34.62;101322.72;4954964;28;20051;-91
2022/06/14 11:12:33;;;;;;;6.03;4.10;;;;;;;27.67;35.16;101325.91;4946073;29;20062;-92
2022/06/14 11:15:02;;;;;;;6.85;4.20;;;;;;;27.54;33.95;101329.06;4943896;29;20117;-91
2022/06/14 11:17:54;;;;;;;9.35;4.40;;;;;;;27.46;33.68;101307.81;4973579;28;20008;-92
2022/06/14 11:20:19;;;;;;;10.30;4.70;;;;;;;27.42;33.42;101320.59;4947054;29;20055;-90
2022/06/14 11:22:48;;;;;;;6.45;3.85;;;;;;;27.63;34.73;101317.41;4950004;29;20296;-87
2022/06/14 11:25:22;;;;;;;7.95;3.80;;;;;;;27.65;34.13;101307.47;4953046;29;20412;-91
2022/06/14 11:27:59;;;;;;;5.93;3.92;;;;;;;27.43;33.25;101295.69;4954521;29;20075;-89
2022/06/14 11:30:40;;;;;;;11.43;4.53;;;;;;;27.49;34.62;101304.81;4944703;29;20132;-91
2022/06/14 11:33:24;;;;;;;7.10;4.18;;;;;;;27.41;33.73;101302.97;4962727;28;20027;-85
2022/06/14 11:36:12;;;;;;;9.55;4.13;;;;;;;27.43;34.73;101289.53;4935878;29;20510;-84
2022/06/14 11:39:03;;;;;;;7.32;4.10;;;;;;;27.37;35.22;101274.28;4952505;29;20031;-85
2022/06/14 11:41:44;;;;;;;9.15;4.55;;;;;;;27.22;35.13;101274.13;4964193;28;20039;-91
2022/06/14 11:44:19;;;;;;;7.38;4.68;;;;;;;27.41;35.81;101286.22;4919768;29;20031;-86
2022/06/14 11:46:58;;;;;;;9.65;4.63;;;;;;;27.57;35.81;101286.19;4927654;28;20141;-88
2022/06/14 11:49:53;;;;;;;10.82;4.60;;;;;;;27.49;35.70;101286.19;4948469;29;20516;-85
2022/06/14 11:52:49;;;;;;;7.18;5.03;;;;;;;27.31;36.99;101277.59;4948642;28;20043;-87
2022/06/14 11:55:27;;;;;;;9.13;4.78;;;;;;;27.43;35.71;101281.56;4957384;28;20086;-87
2022/06/14 11:58:47;;;;;;;8.30;4.72;;;;;;;27.38;36.47;101294.53;4950765;29;20031;-90
2022/06/14 12:01:16;;;;;;;10.35;6.07;;;;;;;27.39;36.38;101288.22;4937435;28;20039;-87
2022/06/14 12:04:09;;;;;;;8.57;5.75;;;;;;;27.28;36.31;101276.13;4967453;28;20469;-87
2022/06/14 12:07:07;;;;;;;11.00;6.13;;;;;;;27.42;35.26;101282.56;4966357;28;20087;-84
2022/06/14 12:10:00;;;;;;;9.60;4.47;;;;;;;27.40;35.41;101277.41;4932661;28;20043;-85
2022/06/14 12:12:37;;;;;;;9.98;4.68;;;;;;;27.03;36.29;101274.47;4950279;29;20995;-88
2022/06/14 12:15:10;;;;;;;8.13;4.70;;;;;;;27.20;37.10;101278.78;4951778;29;20031;-85
2022/06/14 12:17:45;;;;;;;6.95;4.63;;;;;;;27.13;35.83;101254.69;4951168;29;20027;-87